sensor_id;sensor_type;location;lat;lon;timestamp;P1;durP1;ratioP1;P2;durP2;ratioP2
58974;SDS011;44751;52.236;5.178;2023-07-24T00:00:16;6.63;;;5.45;;
58974;SDS011;44751;52.236;5.178;2023-07-24T00:02:43;5.90;;;5.28;;
58974;SDS011;44751;52.236;5.178;2023-07-24T00:05:09;5.97;;;5.00;;
58974;SDS011;44751;52.236;5.178;2023-07-24T00:07:36;8.18;;;5.22;;
58974;SDS011;44751;52.236;5.178;2023-07-24T00:10:03;7.28;;;5.28;;
58974;SDS011;44751;52.236;5.178;2023-07-24T00:12:30;6.47;;;5.05;;
58974;SDS011;44751;52.236;5.178;2023-07-24T00:14:57;5.30;;;4.80;;
58974;SDS011;44751;52.236;5.178;2023-07-24T00:17:23;6.82;;;5.22;;
58974;SDS011;44751;52.236;5.178;2023-07-24T00:19:50;7.03;;;5.40;;
58974;SDS011;44751;52.236;5.178;2023-07-24T00:22:16;5.78;;;4.90;;
58974;SDS011;44751;52.236;5.178;2023-07-24T00:24:43;5.38;;;4.53;;
58974;SDS011;44751;52.236;5.178;2023-07-24T00:27:09;6.03;;;5.20;;
58974;SDS011;44751;52.236;5.178;2023-07-24T00:29:36;5.60;;;5.00;;
58974;SDS011;44751;52.236;5.178;2023-07-24T00:32:02;6.22;;;4.82;;
58974;SDS011;44751;52.236;5.178;2023-07-24T00:34:29;6.45;;;4.55;;
58974;SDS011;44751;52.236;5.178;2023-07-24T00:36:55;5.65;;;4.60;;
58974;SDS011;44751;52.236;5.178;2023-07-24T00:39:25;5.70;;;4.68;;
58974;SDS011;44751;52.236;5.178;2023-07-24T00:41:53;5.82;;;4.80;;
58974;SDS011;44751;52.236;5.178;2023-07-24T00:44:20;6.07;;;4.72;;
58974;SDS011;44751;52.236;5.178;2023-07-24T00:46:46;6.20;;;4.68;;
58974;SDS011;44751;52.236;5.178;2023-07-24T00:49:13;6.10;;;5.00;;
58974;SDS011;44751;52.236;5.178;2023-07-24T00:51:39;5.63;;;4.60;;
58974;SDS011;44751;52.236;5.178;2023-07-24T00:54:06;7.15;;;4.40;;
58974;SDS011;44751;52.236;5.178;2023-07-24T00:56:34;6.63;;;4.45;;
58974;SDS011;44751;52.236;5.178;2023-07-24T00:59:01;6.45;;;4.13;;
58974;SDS011;44751;52.236;5.178;2023-07-24T01:01:27;6.13;;;4.45;;
58974;SDS011;44751;52.236;5.178;2023-07-24T01:03:54;7.35;;;4.65;;
58974;SDS011;44751;52.236;5.178;2023-07-24T01:06:23;5.80;;;4.75;;
58974;SDS011;44751;52.236;5.178;2023-07-24T01:08:50;4.90;;;4.40;;
58974;SDS011;44751;52.236;5.178;2023-07-24T01:11:21;5.68;;;4.70;;
58974;SDS011;44751;52.236;5.178;2023-07-24T01:13:57;5.95;;;4.45;;
58974;SDS011;44751;52.236;5.178;2023-07-24T01:16:33;7.78;;;4.65;;
58974;SDS011;44751;52.236;5.178;2023-07-24T01:19:03;5.72;;;4.70;;
58974;SDS011;44751;52.236;5.178;2023-07-24T01:24:47;7.22;;;4.93;;
58974;SDS011;44751;52.236;5.178;2023-07-24T01:27:25;6.43;;;4.72;;
58974;SDS011;44751;52.236;5.178;2023-07-24T01:29:52;6.05;;;4.78;;
58974;SDS011;44751;52.236;5.178;2023-07-24T01:32:19;5.88;;;4.40;;
58974;SDS011;44751;52.236;5.178;2023-07-24T01:34:45;6.68;;;5.00;;
58974;SDS011;44751;52.236;5.178;2023-07-24T01:37:13;8.27;;;5.32;;
58974;SDS011;44751;52.236;5.178;2023-07-24T01:39:41;5.70;;;4.53;;
58974;SDS011;44751;52.236;5.178;2023-07-24T01:42:09;5.50;;;4.93;;
58974;SDS011;44751;52.236;5.178;2023-07-24T01:44:36;6.00;;;4.57;;
58974;SDS011;44751;52.236;5.178;2023-07-24T01:47:03;6.43;;;4.55;;
58974;SDS011;44751;52.236;5.178;2023-07-24T01:49:29;5.10;;;4.57;;
58974;SDS011;44751;52.236;5.178;2023-07-24T01:51:56;5.45;;;4.65;;
58974;SDS011;44751;52.236;5.178;2023-07-24T01:54:23;7.68;;;4.88;;
58974;SDS011;44751;52.236;5.178;2023-07-24T01:56:50;7.03;;;4.68;;
58974;SDS011;44751;52.236;5.178;2023-07-24T01:59:18;5.32;;;4.80;;
58974;SDS011;44751;52.236;5.178;2023-07-24T02:01:44;6.20;;;4.63;;
58974;SDS011;44751;52.236;5.178;2023-07-24T02:04:10;5.65;;;4.50;;
58974;SDS011;44751;52.236;5.178;2023-07-24T02:06:37;7.47;;;4.95;;
58974;SDS011;44751;52.236;5.178;2023-07-24T02:09:03;8.15;;;5.38;;
58974;SDS011;44751;52.236;5.178;2023-07-24T02:11:30;7.45;;;5.10;;
58974;SDS011;44751;52.236;5.178;2023-07-24T02:13:56;7.35;;;5.00;;
58974;SDS011;44751;52.236;5.178;2023-07-24T02:16:22;6.65;;;5.28;;
58974;SDS011;44751;52.236;5.178;2023-07-24T02:18:49;7.05;;;5.15;;
58974;SDS011;44751;52.236;5.178;2023-07-24T02:21:15;5.68;;;4.65;;
58974;SDS011;44751;52.236;5.178;2023-07-24T02:23:42;7.05;;;4.63;;
58974;SDS011;44751;52.236;5.178;2023-07-24T02:26:08;5.88;;;4.57;;
58974;SDS011;44751;52.236;5.178;2023-07-24T02:28:35;6.55;;;4.95;;
58974;SDS011;44751;52.236;5.178;2023-07-24T02:31:01;5.78;;;4.78;;
58974;SDS011;44751;52.236;5.178;2023-07-24T02:33:27;6.72;;;4.43;;
58974;SDS011;44751;52.236;5.178;2023-07-24T02:35:54;5.97;;;4.63;;
58974;SDS011;44751;52.236;5.178;2023-07-24T02:38:20;6.22;;;4.70;;
58974;SDS011;44751;52.236;5.178;2023-07-24T02:40:47;5.95;;;4.70;;
58974;SDS011;44751;52.236;5.178;2023-07-24T02:43:13;5.28;;;4.55;;
58974;SDS011;44751;52.236;5.178;2023-07-24T02:45:40;6.78;;;4.80;;
58974;SDS011;44751;52.236;5.178;2023-07-24T02:48:06;5.78;;;4.55;;
58974;SDS011;44751;52.236;5.178;2023-07-24T02:50:33;6.25;;;4.55;;
58974;SDS011;44751;52.236;5.178;2023-07-24T02:53:00;5.80;;;3.95;;
58974;SDS011;44751;52.236;5.178;2023-07-24T02:55:26;5.38;;;4.43;;
58974;SDS011;44751;52.236;5.178;2023-07-24T02:57:53;5.90;;;4.25;;
58974;SDS011;44751;52.236;5.178;2023-07-24T03:00:19;5.50;;;4.55;;
58974;SDS011;44751;52.236;5.178;2023-07-24T03:02:46;5.82;;;4.22;;
58974;SDS011;44751;52.236;5.178;2023-07-24T03:05:12;8.20;;;4.32;;
58974;SDS011;44751;52.236;5.178;2023-07-24T03:07:39;7.85;;;4.93;;
58974;SDS011;44751;52.236;5.178;2023-07-24T03:10:05;9.40;;;4.95;;
58974;SDS011;44751;52.236;5.178;2023-07-24T03:12:32;6.03;;;4.53;;
58974;SDS011;44751;52.236;5.178;2023-07-24T03:14:59;6.13;;;4.63;;
58974;SDS011;44751;52.236;5.178;2023-07-24T03:17:28;6.63;;;4.10;;
58974;SDS011;44751;52.236;5.178;2023-07-24T03:19:55;5.40;;;4.28;;
58974;SDS011;44751;52.236;5.178;2023-07-24T03:22:21;8.00;;;4.55;;
58974;SDS011;44751;52.236;5.178;2023-07-24T03:24:47;7.35;;;5.40;;
58974;SDS011;44751;52.236;5.178;2023-07-24T03:27:14;5.68;;;4.75;;
58974;SDS011;44751;52.236;5.178;2023-07-24T03:29:40;7.45;;;4.82;;
58974;SDS011;44751;52.236;5.178;2023-07-24T03:32:07;6.32;;;4.70;;
58974;SDS011;44751;52.236;5.178;2023-07-24T03:34:33;7.63;;;5.00;;
58974;SDS011;44751;52.236;5.178;2023-07-24T03:37:00;4.93;;;3.83;;
58974;SDS011;44751;52.236;5.178;2023-07-24T03:39:26;6.03;;;4.78;;
58974;SDS011;44751;52.236;5.178;2023-07-24T03:41:53;8.48;;;4.90;;
58974;SDS011;44751;52.236;5.178;2023-07-24T03:44:19;6.13;;;4.25;;
58974;SDS011;44751;52.236;5.178;2023-07-24T03:46:46;5.50;;;3.88;;
58974;SDS011;44751;52.236;5.178;2023-07-24T03:49:12;5.28;;;4.68;;
58974;SDS011;44751;52.236;5.178;2023-07-24T03:51:38;5.85;;;4.55;;
58974;SDS011;44751;52.236;5.178;2023-07-24T03:54:05;7.25;;;4.60;;
58974;SDS011;44751;52.236;5.178;2023-07-24T03:56:31;6.43;;;4.68;;
58974;SDS011;44751;52.236;5.178;2023-07-24T03:58:58;6.63;;;5.07;;
58974;SDS011;44751;52.236;5.178;2023-07-24T04:01:24;6.75;;;5.43;;
58974;SDS011;44751;52.236;5.178;2023-07-24T04:03:53;7.93;;;4.97;;
58974;SDS011;44751;52.236;5.178;2023-07-24T04:06:19;5.97;;;4.88;;
58974;SDS011;44751;52.236;5.178;2023-07-24T04:08:46;9.20;;;5.35;;
58974;SDS011;44751;52.236;5.178;2023-07-24T04:11:12;7.25;;;5.60;;
58974;SDS011;44751;52.236;5.178;2023-07-24T04:13:39;7.45;;;5.85;;
58974;SDS011;44751;52.236;5.178;2023-07-24T04:16:05;9.45;;;6.03;;
58974;SDS011;44751;52.236;5.178;2023-07-24T04:18:32;8.05;;;5.82;;
58974;SDS011;44751;52.236;5.178;2023-07-24T04:20:58;9.75;;;5.93;;
58974;SDS011;44751;52.236;5.178;2023-07-24T04:23:25;8.82;;;6.32;;
58974;SDS011;44751;52.236;5.178;2023-07-24T04:25:51;8.30;;;6.03;;
58974;SDS011;44751;52.236;5.178;2023-07-24T04:28:17;8.70;;;6.47;;
58974;SDS011;44751;52.236;5.178;2023-07-24T04:30:44;10.00;;;6.90;;
58974;SDS011;44751;52.236;5.178;2023-07-24T04:33:10;9.60;;;6.82;;
58974;SDS011;44751;52.236;5.178;2023-07-24T04:35:37;9.55;;;6.32;;
58974;SDS011;44751;52.236;5.178;2023-07-24T04:38:03;10.25;;;6.60;;
58974;SDS011;44751;52.236;5.178;2023-07-24T04:40:29;10.82;;;6.50;;
58974;SDS011;44751;52.236;5.178;2023-07-24T04:42:56;10.50;;;7.13;;
58974;SDS011;44751;52.236;5.178;2023-07-24T04:45:23;11.00;;;7.18;;
58974;SDS011;44751;52.236;5.178;2023-07-24T04:47:49;9.75;;;6.72;;
58974;SDS011;44751;52.236;5.178;2023-07-24T04:50:16;8.82;;;7.00;;
58974;SDS011;44751;52.236;5.178;2023-07-24T04:52:42;9.10;;;6.70;;
58974;SDS011;44751;52.236;5.178;2023-07-24T04:55:09;9.98;;;7.15;;
58974;SDS011;44751;52.236;5.178;2023-07-24T04:57:35;8.82;;;6.55;;
58974;SDS011;44751;52.236;5.178;2023-07-24T05:00:01;10.00;;;6.35;;
58974;SDS011;44751;52.236;5.178;2023-07-24T05:02:28;13.00;;;6.88;;
58974;SDS011;44751;52.236;5.178;2023-07-24T05:04:55;10.43;;;6.65;;
58974;SDS011;44751;52.236;5.178;2023-07-24T05:07:21;13.25;;;7.03;;
58974;SDS011;44751;52.236;5.178;2023-07-24T05:09:48;10.20;;;6.90;;
58974;SDS011;44751;52.236;5.178;2023-07-24T05:12:14;9.07;;;6.50;;
58974;SDS011;44751;52.236;5.178;2023-07-24T05:14:41;9.80;;;6.38;;
58974;SDS011;44751;52.236;5.178;2023-07-24T05:17:07;9.82;;;6.22;;
58974;SDS011;44751;52.236;5.178;2023-07-24T05:19:34;10.80;;;6.80;;
58974;SDS011;44751;52.236;5.178;2023-07-24T05:22:00;9.38;;;6.10;;
58974;SDS011;44751;52.236;5.178;2023-07-24T05:24:27;9.35;;;6.03;;
58974;SDS011;44751;52.236;5.178;2023-07-24T05:26:53;8.77;;;6.38;;
58974;SDS011;44751;52.236;5.178;2023-07-24T05:29:19;9.98;;;6.15;;
58974;SDS011;44751;52.236;5.178;2023-07-24T05:31:46;9.27;;;6.38;;
58974;SDS011;44751;52.236;5.178;2023-07-24T05:34:13;10.43;;;6.03;;
58974;SDS011;44751;52.236;5.178;2023-07-24T05:36:42;7.63;;;5.55;;
58974;SDS011;44751;52.236;5.178;2023-07-24T05:39:08;9.32;;;6.20;;
58974;SDS011;44751;52.236;5.178;2023-07-24T05:41:35;12.35;;;6.35;;
58974;SDS011;44751;52.236;5.178;2023-07-24T05:44:01;9.35;;;5.93;;
58974;SDS011;44751;52.236;5.178;2023-07-24T05:46:28;10.40;;;5.32;;
58974;SDS011;44751;52.236;5.178;2023-07-24T05:48:54;10.80;;;6.45;;
58974;SDS011;44751;52.236;5.178;2023-07-24T05:51:25;10.43;;;5.90;;
58974;SDS011;44751;52.236;5.178;2023-07-24T05:53:55;13.48;;;6.00;;
58974;SDS011;44751;52.236;5.178;2023-07-24T05:56:21;12.02;;;6.20;;
58974;SDS011;44751;52.236;5.178;2023-07-24T05:58:47;11.45;;;6.07;;
58974;SDS011;44751;52.236;5.178;2023-07-24T06:01:14;10.40;;;5.95;;
58974;SDS011;44751;52.236;5.178;2023-07-24T06:03:40;10.25;;;6.22;;
58974;SDS011;44751;52.236;5.178;2023-07-24T06:06:07;12.20;;;6.05;;
58974;SDS011;44751;52.236;5.178;2023-07-24T06:08:33;13.30;;;7.07;;
58974;SDS011;44751;52.236;5.178;2023-07-24T06:11:00;12.70;;;7.05;;
58974;SDS011;44751;52.236;5.178;2023-07-24T06:13:26;10.02;;;6.72;;
58974;SDS011;44751;52.236;5.178;2023-07-24T06:15:53;10.25;;;6.75;;
58974;SDS011;44751;52.236;5.178;2023-07-24T06:18:19;9.85;;;6.53;;
58974;SDS011;44751;52.236;5.178;2023-07-24T06:20:46;8.77;;;6.40;;
58974;SDS011;44751;52.236;5.178;2023-07-24T06:23:15;12.35;;;6.47;;
58974;SDS011;44751;52.236;5.178;2023-07-24T06:25:42;12.63;;;6.50;;
58974;SDS011;44751;52.236;5.178;2023-07-24T06:28:09;12.48;;;5.93;;
58974;SDS011;44751;52.236;5.178;2023-07-24T06:30:35;11.27;;;6.05;;
58974;SDS011;44751;52.236;5.178;2023-07-24T06:33:02;10.48;;;6.03;;
58974;SDS011;44751;52.236;5.178;2023-07-24T06:35:28;9.98;;;5.65;;
58974;SDS011;44751;52.236;5.178;2023-07-24T06:37:55;9.52;;;5.40;;
58974;SDS011;44751;52.236;5.178;2023-07-24T06:40:21;10.30;;;5.40;;
58974;SDS011;44751;52.236;5.178;2023-07-24T06:42:48;12.20;;;5.65;;
58974;SDS011;44751;52.236;5.178;2023-07-24T06:45:14;11.55;;;5.55;;
58974;SDS011;44751;52.236;5.178;2023-07-24T06:47:41;11.02;;;4.95;;
58974;SDS011;44751;52.236;5.178;2023-07-24T06:50:07;8.95;;;4.43;;
58974;SDS011;44751;52.236;5.178;2023-07-24T06:52:34;11.20;;;4.35;;
58974;SDS011;44751;52.236;5.178;2023-07-24T06:55:00;8.90;;;4.05;;
58974;SDS011;44751;52.236;5.178;2023-07-24T06:57:27;8.45;;;3.75;;
58974;SDS011;44751;52.236;5.178;2023-07-24T06:59:53;7.60;;;4.00;;
58974;SDS011;44751;52.236;5.178;2023-07-24T07:02:20;9.52;;;4.50;;
58974;SDS011;44751;52.236;5.178;2023-07-24T07:04:46;7.43;;;3.90;;
58974;SDS011;44751;52.236;5.178;2023-07-24T07:07:12;8.00;;;4.13;;
58974;SDS011;44751;52.236;5.178;2023-07-24T07:09:39;8.88;;;3.60;;
58974;SDS011;44751;52.236;5.178;2023-07-24T07:12:06;7.82;;;4.10;;
58974;SDS011;44751;52.236;5.178;2023-07-24T07:14:32;7.63;;;3.83;;
58974;SDS011;44751;52.236;5.178;2023-07-24T07:16:59;7.38;;;3.83;;
58974;SDS011;44751;52.236;5.178;2023-07-24T07:19:26;8.52;;;4.00;;
58974;SDS011;44751;52.236;5.178;2023-07-24T07:21:53;7.78;;;4.07;;
58974;SDS011;44751;52.236;5.178;2023-07-24T07:24:19;7.82;;;3.30;;
58974;SDS011;44751;52.236;5.178;2023-07-24T07:26:46;10.85;;;3.90;;
58974;SDS011;44751;52.236;5.178;2023-07-24T07:29:12;8.15;;;3.75;;
58974;SDS011;44751;52.236;5.178;2023-07-24T07:31:38;10.38;;;3.58;;
58974;SDS011;44751;52.236;5.178;2023-07-24T07:34:05;9.32;;;3.55;;
58974;SDS011;44751;52.236;5.178;2023-07-24T07:36:31;10.60;;;3.70;;
58974;SDS011;44751;52.236;5.178;2023-07-24T07:38:58;8.00;;;3.60;;
58974;SDS011;44751;52.236;5.178;2023-07-24T07:41:24;7.28;;;3.40;;
58974;SDS011;44751;52.236;5.178;2023-07-24T07:43:53;7.53;;;3.80;;
58974;SDS011;44751;52.236;5.178;2023-07-24T07:46:20;8.57;;;4.20;;
58974;SDS011;44751;52.236;5.178;2023-07-24T07:48:47;9.98;;;3.83;;
58974;SDS011;44751;52.236;5.178;2023-07-24T07:51:14;8.98;;;4.00;;
58974;SDS011;44751;52.236;5.178;2023-07-24T07:53:41;9.23;;;4.30;;
58974;SDS011;44751;52.236;5.178;2023-07-24T07:56:07;7.80;;;3.78;;
58974;SDS011;44751;52.236;5.178;2023-07-24T07:58:36;10.55;;;4.40;;
58974;SDS011;44751;52.236;5.178;2023-07-24T08:01:03;10.68;;;4.07;;
58974;SDS011;44751;52.236;5.178;2023-07-24T08:03:32;9.55;;;4.03;;
58974;SDS011;44751;52.236;5.178;2023-07-24T08:05:59;10.27;;;4.05;;
58974;SDS011;44751;52.236;5.178;2023-07-24T08:08:26;8.95;;;4.15;;
58974;SDS011;44751;52.236;5.178;2023-07-24T08:10:53;9.43;;;3.88;;
58974;SDS011;44751;52.236;5.178;2023-07-24T08:13:19;11.02;;;4.40;;
58974;SDS011;44751;52.236;5.178;2023-07-24T08:15:45;7.55;;;4.55;;
58974;SDS011;44751;52.236;5.178;2023-07-24T08:18:12;8.07;;;4.60;;
58974;SDS011;44751;52.236;5.178;2023-07-24T08:20:38;6.50;;;4.38;;
58974;SDS011;44751;52.236;5.178;2023-07-24T08:23:05;7.80;;;4.10;;
58974;SDS011;44751;52.236;5.178;2023-07-24T08:25:31;10.52;;;4.45;;
58974;SDS011;44751;52.236;5.178;2023-07-24T08:27:58;7.60;;;4.65;;
58974;SDS011;44751;52.236;5.178;2023-07-24T08:30:24;8.80;;;4.30;;
58974;SDS011;44751;52.236;5.178;2023-07-24T08:32:51;8.82;;;4.10;;
58974;SDS011;44751;52.236;5.178;2023-07-24T08:35:18;11.75;;;4.25;;
58974;SDS011;44751;52.236;5.178;2023-07-24T08:37:44;10.65;;;4.50;;
58974;SDS011;44751;52.236;5.178;2023-07-24T08:40:11;7.28;;;3.53;;
58974;SDS011;44751;52.236;5.178;2023-07-24T08:42:43;7.65;;;3.60;;
58974;SDS011;44751;52.236;5.178;2023-07-24T08:45:13;11.13;;;4.75;;
58974;SDS011;44751;52.236;5.178;2023-07-24T08:47:41;7.40;;;4.50;;
58974;SDS011;44751;52.236;5.178;2023-07-24T08:50:09;6.95;;;4.40;;
58974;SDS011;44751;52.236;5.178;2023-07-24T08:52:40;9.75;;;4.55;;
58974;SDS011;44751;52.236;5.178;2023-07-24T08:55:07;9.98;;;4.78;;
58974;SDS011;44751;52.236;5.178;2023-07-24T08:57:34;7.22;;;4.10;;
58974;SDS011;44751;52.236;5.178;2023-07-24T09:00:02;7.80;;;5.05;;
58974;SDS011;44751;52.236;5.178;2023-07-24T09:02:36;8.65;;;5.25;;
58974;SDS011;44751;52.236;5.178;2023-07-24T09:05:02;10.50;;;4.75;;
58974;SDS011;44751;52.236;5.178;2023-07-24T09:07:29;9.10;;;5.40;;
58974;SDS011;44751;52.236;5.178;2023-07-24T09:09:56;8.25;;;5.45;;
58974;SDS011;44751;52.236;5.178;2023-07-24T09:12:23;8.85;;;5.70;;
58974;SDS011;44751;52.236;5.178;2023-07-24T09:15:00;13.75;;;5.80;;
58974;SDS011;44751;52.236;5.178;2023-07-24T09:17:27;8.68;;;5.38;;
58974;SDS011;44751;52.236;5.178;2023-07-24T09:19:57;7.80;;;5.38;;
58974;SDS011;44751;52.236;5.178;2023-07-24T09:22:23;8.85;;;5.47;;
58974;SDS011;44751;52.236;5.178;2023-07-24T09:27:26;7.50;;;5.00;;
58974;SDS011;44751;52.236;5.178;2023-07-24T09:29:56;8.82;;;5.03;;
58974;SDS011;44751;52.236;5.178;2023-07-24T09:32:24;7.70;;;4.75;;
58974;SDS011;44751;52.236;5.178;2023-07-24T09:34:56;8.77;;;5.75;;
58974;SDS011;44751;52.236;5.178;2023-07-24T09:37:26;9.35;;;5.55;;
58974;SDS011;44751;52.236;5.178;2023-07-24T09:39:55;9.33;;;5.07;;
58974;SDS011;44751;52.236;5.178;2023-07-24T09:42:34;10.00;;;5.88;;
58974;SDS011;44751;52.236;5.178;2023-07-24T09:45:02;7.45;;;4.97;;
58974;SDS011;44751;52.236;5.178;2023-07-24T09:47:30;11.15;;;6.35;;
58974;SDS011;44751;52.236;5.178;2023-07-24T09:49:57;9.82;;;5.55;;
58974;SDS011;44751;52.236;5.178;2023-07-24T09:52:27;8.07;;;5.70;;
58974;SDS011;44751;52.236;5.178;2023-07-24T09:57:28;11.93;;;5.97;;
58974;SDS011;44751;52.236;5.178;2023-07-24T09:59:56;9.35;;;6.22;;
58974;SDS011;44751;52.236;5.178;2023-07-24T10:02:23;9.77;;;5.78;;
58974;SDS011;44751;52.236;5.178;2023-07-24T10:04:50;11.00;;;6.40;;
58974;SDS011;44751;52.236;5.178;2023-07-24T10:07:17;10.15;;;5.88;;
58974;SDS011;44751;52.236;5.178;2023-07-24T10:09:46;8.20;;;5.60;;
58974;SDS011;44751;52.236;5.178;2023-07-24T10:12:13;8.70;;;5.60;;
58974;SDS011;44751;52.236;5.178;2023-07-24T10:14:41;10.13;;;5.53;;
58974;SDS011;44751;52.236;5.178;2023-07-24T10:17:08;7.55;;;5.15;;
58974;SDS011;44751;52.236;5.178;2023-07-24T10:19:35;9.52;;;4.60;;
58974;SDS011;44751;52.236;5.178;2023-07-24T10:22:03;8.15;;;4.60;;
58974;SDS011;44751;52.236;5.178;2023-07-24T10:24:29;8.00;;;4.78;;
58974;SDS011;44751;52.236;5.178;2023-07-24T10:26:56;7.50;;;4.85;;
58974;SDS011;44751;52.236;5.178;2023-07-24T10:29:26;7.35;;;5.20;;
58974;SDS011;44751;52.236;5.178;2023-07-24T10:31:53;6.88;;;4.97;;
58974;SDS011;44751;52.236;5.178;2023-07-24T10:34:20;8.25;;;5.03;;
58974;SDS011;44751;52.236;5.178;2023-07-24T10:36:46;12.55;;;4.93;;
58974;SDS011;44751;52.236;5.178;2023-07-24T10:39:13;7.68;;;4.95;;
58974;SDS011;44751;52.236;5.178;2023-07-24T10:41:42;12.13;;;5.18;;
58974;SDS011;44751;52.236;5.178;2023-07-24T10:44:10;9.32;;;4.93;;
58974;SDS011;44751;52.236;5.178;2023-07-24T10:46:40;8.32;;;4.43;;
58974;SDS011;44751;52.236;5.178;2023-07-24T10:49:07;9.30;;;4.55;;
58974;SDS011;44751;52.236;5.178;2023-07-24T10:51:34;10.35;;;5.65;;
58974;SDS011;44751;52.236;5.178;2023-07-24T10:54:03;10.45;;;6.38;;
58974;SDS011;44751;52.236;5.178;2023-07-24T10:56:30;9.48;;;6.20;;
58974;SDS011;44751;52.236;5.178;2023-07-24T10:58:56;10.10;;;6.82;;
58974;SDS011;44751;52.236;5.178;2023-07-24T11:01:28;9.77;;;6.47;;
58974;SDS011;44751;52.236;5.178;2023-07-24T11:03:55;10.90;;;6.13;;
58974;SDS011;44751;52.236;5.178;2023-07-24T11:06:22;9.85;;;5.75;;
58974;SDS011;44751;52.236;5.178;2023-07-24T11:08:55;7.78;;;5.22;;
58974;SDS011;44751;52.236;5.178;2023-07-24T11:11:31;8.18;;;4.85;;
58974;SDS011;44751;52.236;5.178;2023-07-24T11:14:00;7.78;;;4.45;;
58974;SDS011;44751;52.236;5.178;2023-07-24T11:16:27;6.60;;;4.07;;
58974;SDS011;44751;52.236;5.178;2023-07-24T11:18:56;7.20;;;4.03;;
58974;SDS011;44751;52.236;5.178;2023-07-24T11:21:22;5.72;;;3.80;;
58974;SDS011;44751;52.236;5.178;2023-07-24T11:23:53;6.63;;;3.83;;
58974;SDS011;44751;52.236;5.178;2023-07-24T11:26:22;5.53;;;3.60;;
58974;SDS011;44751;52.236;5.178;2023-07-24T11:28:49;5.60;;;3.30;;
58974;SDS011;44751;52.236;5.178;2023-07-24T11:31:16;5.68;;;3.20;;
58974;SDS011;44751;52.236;5.178;2023-07-24T11:33:45;7.88;;;3.67;;
58974;SDS011;44751;52.236;5.178;2023-07-24T11:36:13;4.93;;;3.35;;
58974;SDS011;44751;52.236;5.178;2023-07-24T11:38:40;5.65;;;3.53;;
58974;SDS011;44751;52.236;5.178;2023-07-24T11:41:08;5.53;;;3.40;;
58974;SDS011;44751;52.236;5.178;2023-07-24T11:43:35;6.50;;;3.50;;
58974;SDS011;44751;52.236;5.178;2023-07-24T11:46:01;4.97;;;3.50;;
58974;SDS011;44751;52.236;5.178;2023-07-24T11:48:28;5.55;;;3.30;;
58974;SDS011;44751;52.236;5.178;2023-07-24T11:50:56;5.00;;;3.28;;
58974;SDS011;44751;52.236;5.178;2023-07-24T11:53:27;5.72;;;3.75;;
58974;SDS011;44751;52.236;5.178;2023-07-24T11:55:56;4.45;;;3.30;;
58974;SDS011;44751;52.236;5.178;2023-07-24T11:58:27;6.43;;;3.50;;
58974;SDS011;44751;52.236;5.178;2023-07-24T12:00:56;7.38;;;3.70;;
58974;SDS011;44751;52.236;5.178;2023-07-24T12:03:26;5.75;;;3.33;;
58974;SDS011;44751;52.236;5.178;2023-07-24T12:05:54;5.13;;;3.33;;
58974;SDS011;44751;52.236;5.178;2023-07-24T12:08:29;6.88;;;3.60;;
58974;SDS011;44751;52.236;5.178;2023-07-24T12:10:57;5.93;;;3.47;;
58974;SDS011;44751;52.236;5.178;2023-07-24T12:13:24;5.38;;;3.55;;
58974;SDS011;44751;52.236;5.178;2023-07-24T12:15:50;5.90;;;3.78;;
58974;SDS011;44751;52.236;5.178;2023-07-24T12:18:17;6.18;;;3.90;;
58974;SDS011;44751;52.236;5.178;2023-07-24T12:20:45;5.35;;;3.33;;
58974;SDS011;44751;52.236;5.178;2023-07-24T12:23:12;6.45;;;3.53;;
58974;SDS011;44751;52.236;5.178;2023-07-24T12:25:38;4.75;;;3.38;;
58974;SDS011;44751;52.236;5.178;2023-07-24T12:28:05;4.60;;;3.40;;
58974;SDS011;44751;52.236;5.178;2023-07-24T12:30:31;8.77;;;4.00;;
58974;SDS011;44751;52.236;5.178;2023-07-24T12:32:58;4.15;;;3.63;;
58974;SDS011;44751;52.236;5.178;2023-07-24T12:35:24;8.15;;;3.90;;
58974;SDS011;44751;52.236;5.178;2023-07-24T12:37:53;5.20;;;3.33;;
58974;SDS011;44751;52.236;5.178;2023-07-24T12:40:19;6.28;;;3.50;;
58974;SDS011;44751;52.236;5.178;2023-07-24T12:42:45;3.92;;;2.38;;
58974;SDS011;44751;52.236;5.178;2023-07-24T12:45:12;4.97;;;3.00;;
58974;SDS011;44751;52.236;5.178;2023-07-24T12:47:39;3.10;;;2.88;;
58974;SDS011;44751;52.236;5.178;2023-07-24T12:50:08;4.05;;;2.90;;
58974;SDS011;44751;52.236;5.178;2023-07-24T12:52:35;4.28;;;3.05;;
58974;SDS011;44751;52.236;5.178;2023-07-24T12:55:01;2.97;;;2.67;;
58974;SDS011;44751;52.236;5.178;2023-07-24T12:57:28;3.80;;;2.63;;
58974;SDS011;44751;52.236;5.178;2023-07-24T12:59:55;3.35;;;2.53;;
58974;SDS011;44751;52.236;5.178;2023-07-24T13:02:21;5.43;;;3.20;;
58974;SDS011;44751;52.236;5.178;2023-07-24T13:04:51;2.60;;;2.40;;
58974;SDS011;44751;52.236;5.178;2023-07-24T13:07:18;3.28;;;2.28;;
58974;SDS011;44751;52.236;5.178;2023-07-24T13:09:44;3.58;;;2.33;;
58974;SDS011;44751;52.236;5.178;2023-07-24T13:12:11;4.22;;;2.50;;
58974;SDS011;44751;52.236;5.178;2023-07-24T13:14:37;2.75;;;2.20;;
58974;SDS011;44751;52.236;5.178;2023-07-24T13:17:04;3.42;;;2.20;;
58974;SDS011;44751;52.236;5.178;2023-07-24T13:19:32;4.60;;;2.20;;
58974;SDS011;44751;52.236;5.178;2023-07-24T13:21:58;3.08;;;2.17;;
58974;SDS011;44751;52.236;5.178;2023-07-24T13:24:25;2.50;;;1.95;;
58974;SDS011;44751;52.236;5.178;2023-07-24T13:27:00;2.65;;;1.95;;
58974;SDS011;44751;52.236;5.178;2023-07-24T13:29:27;2.40;;;1.88;;
58974;SDS011;44751;52.236;5.178;2023-07-24T13:31:56;3.38;;;1.70;;
58974;SDS011;44751;52.236;5.178;2023-07-24T13:34:28;3.50;;;2.00;;
58974;SDS011;44751;52.236;5.178;2023-07-24T13:36:55;3.67;;;1.88;;
58974;SDS011;44751;52.236;5.178;2023-07-24T13:39:21;2.90;;;1.60;;
58974;SDS011;44751;52.236;5.178;2023-07-24T13:41:47;4.28;;;1.80;;
58974;SDS011;44751;52.236;5.178;2023-07-24T13:44:14;4.85;;;1.90;;
58974;SDS011;44751;52.236;5.178;2023-07-24T13:46:41;4.43;;;1.65;;
58974;SDS011;44751;52.236;5.178;2023-07-24T13:49:07;3.53;;;1.52;;
58974;SDS011;44751;52.236;5.178;2023-07-24T13:51:33;4.00;;;1.55;;
58974;SDS011;44751;52.236;5.178;2023-07-24T13:54:00;3.45;;;1.52;;
58974;SDS011;44751;52.236;5.178;2023-07-24T13:56:26;4.72;;;2.03;;
58974;SDS011;44751;52.236;5.178;2023-07-24T13:58:54;3.05;;;1.70;;
58974;SDS011;44751;52.236;5.178;2023-07-24T14:01:22;2.38;;;1.55;;
58974;SDS011;44751;52.236;5.178;2023-07-24T14:03:49;3.60;;;1.52;;
58974;SDS011;44751;52.236;5.178;2023-07-24T14:06:15;4.13;;;1.70;;
58974;SDS011;44751;52.236;5.178;2023-07-24T14:08:41;4.88;;;1.75;;
58974;SDS011;44751;52.236;5.178;2023-07-24T14:11:08;3.20;;;2.13;;
58974;SDS011;44751;52.236;5.178;2023-07-24T14:13:34;4.40;;;1.92;;
58974;SDS011;44751;52.236;5.178;2023-07-24T14:16:01;4.55;;;1.80;;
58974;SDS011;44751;52.236;5.178;2023-07-24T14:18:27;5.50;;;1.92;;
58974;SDS011;44751;52.236;5.178;2023-07-24T14:20:53;3.20;;;1.65;;
58974;SDS011;44751;52.236;5.178;2023-07-24T14:23:21;3.70;;;1.83;;
58974;SDS011;44751;52.236;5.178;2023-07-24T14:25:48;3.00;;;1.58;;
58974;SDS011;44751;52.236;5.178;2023-07-24T14:28:14;4.32;;;1.60;;
58974;SDS011;44751;52.236;5.178;2023-07-24T14:30:41;9.90;;;2.13;;
58974;SDS011;44751;52.236;5.178;2023-07-24T14:33:07;4.40;;;1.67;;
58974;SDS011;44751;52.236;5.178;2023-07-24T14:35:34;4.82;;;1.50;;
58974;SDS011;44751;52.236;5.178;2023-07-24T14:38:00;5.50;;;1.70;;
58974;SDS011;44751;52.236;5.178;2023-07-24T14:40:27;4.82;;;1.50;;
58974;SDS011;44751;52.236;5.178;2023-07-24T14:42:59;5.43;;;1.67;;
58974;SDS011;44751;52.236;5.178;2023-07-24T14:45:28;5.53;;;1.50;;
58974;SDS011;44751;52.236;5.178;2023-07-24T14:47:55;2.50;;;1.30;;
58974;SDS011;44751;52.236;5.178;2023-07-24T14:50:22;3.78;;;1.17;;
58974;SDS011;44751;52.236;5.178;2023-07-24T14:52:49;3.53;;;1.30;;